Time;durP1;ratioP1;P1;durP2;ratioP2;P2;SDS_P1;SDS_P2;PMS_P1;PMS_P2;Temp;Humidity;BMP_temperature;BMP_pressure;BME280_temperature;BME280_humidity;BME280_pressure;Samples;Min_cycle;Max_cycle;Signal;HPM_P1;HPM_P2
2024/03/31 00:00:39;;;;;;;9.00;4.93;;;;;;;13.41;100.00;101539.91;10454586;28;20664;-78
2024/03/31 00:06:02;;;;;;;13.43;4.78;;;;;;;13.56;100.00;101540.16;10455168;28;20061;-78
2024/03/31 00:11:24;;;;;;;13.15;4.80;;;;;;;13.32;100.00;101539.78;10440145;28;20057;-78
2024/03/31 00:16:48;;;;;;;13.55;5.40;;;;;;;12.98;100.00;101535.59;10454226;28;20099;-79
2024/03/31 00:22:11;;;;;;;18.23;7.60;;;;;;;13.20;100.00;101540.44;10464165;28;20052;-77
2024/03/31 00:27:34;;;;;;;18.27;8.60;;;;;;;13.71;100.00;101518.28;10440581;28;20048;-78
2024/03/31 00:32:58;;;;;;;13.95;6.15;;;;;;;13.58;100.00;101517.22;10468064;28;20048;-78
2024/03/31 00:38:20;;;;;;;15.95;4.93;;;;;;;13.61;100.00;101521.66;10454048;28;20049;-78
2024/03/31 00:43:43;;;;;;;10.23;4.43;;;;;;;13.72;100.00;101520.09;10439700;28;20047;-78
2024/03/31 00:49:07;;;;;;;15.98;6.28;;;;;;;13.60;100.00;101531.38;10451959;28;20045;-78
2024/03/31 00:54:32;;;;;;;17.42;7.20;;;;;;;13.36;100.00;101526.59;10453073;28;20053;-77
2024/03/31 00:59:54;;;;;;;22.92;9.30;;;;;;;13.31;100.00;101522.97;10438556;28;20061;-78
2024/03/31 01:05:20;;;;;;;42.15;17.50;;;;;;;13.20;100.00;101515.69;10452529;28;20067;-78
2024/03/31 01:10:42;;;;;;;37.55;15.50;;;;;;;13.36;100.00;101518.63;10451256;28;20049;-78
2024/03/31 01:16:05;;;;;;;17.23;7.57;;;;;;;13.34;100.00;101512.41;10452292;28;20049;-77
2024/03/31 01:21:31;;;;;;;13.35;7.07;;;;;;;13.20;100.00;101516.56;10437646;28;20057;-79
2024/03/31 01:26:55;;;;;;;21.98;8.35;;;;;;;13.07;100.00;101518.09;10462687;28;20063;-78
2024/03/31 01:32:17;;;;;;;23.42;9.95;;;;;;;13.19;100.00;101516.56;10436717;28;20416;-78
2024/03/31 01:37:40;;;;;;;24.67;10.95;;;;;;;13.17;100.00;101521.84;10451594;28;20114;-78
2024/03/31 01:43:05;;;;;;;24.25;10.25;;;;;;;13.18;100.00;101520.97;10451566;28;20390;-78
2024/03/31 01:48:28;;;;;;;22.35;9.32;;;;;;;13.24;100.00;101525.50;10449296;28;20055;-78
2024/03/31 01:53:50;;;;;;;21.88;8.85;;;;;;;13.29;100.00;101526.44;10423238;28;20068;-78
2024/03/31 01:59:14;;;;;;;17.70;6.55;;;;;;;13.38;100.00;101526.63;10450970;28;20421;-78
2024/03/31 02:04:37;;;;;;;14.35;7.32;;;;;;;13.38;100.00;101529.25;10469927;28;20193;-77
2024/03/31 02:09:59;;;;;;;16.38;6.85;;;;;;;13.38;100.00;101535.47;10449227;28;20052;-80
2024/03/31 02:15:24;;;;;;;13.20;5.65;;;;;;;13.49;100.00;101539.19;10450346;28;20095;-78
2024/03/31 02:20:46;;;;;;;15.55;7.65;;;;;;;13.35;100.00;101545.13;10449323;28;20072;-78
2024/03/31 02:26:09;;;;;;;17.42;6.80;;;;;;;13.21;100.00;101547.53;10421614;28;20045;-79
2024/03/31 02:31:34;;;;;;;23.70;7.07;;;;;;;13.25;100.00;101552.03;10447419;28;20749;-78
2024/03/31 02:36:59;;;;;;;21.27;6.00;;;;;;;13.38;100.00;101546.06;10448755;28;20061;-79
2024/03/31 02:42:21;;;;;;;14.27;6.53;;;;;;;13.53;100.00;101551.59;10448825;28;20493;-79
2024/03/31 02:47:47;;;;;;;16.02;6.28;;;;;;;13.39;100.00;101562.88;10434435;28;20095;-79
2024/03/31 02:53:09;;;;;;;13.30;3.90;;;;;;;13.69;100.00;101557.16;10441035;28;20531;-78
2024/03/31 02:58:32;;;;;;;13.57;5.00;;;;;;;13.82;100.00;101556.50;10447471;28;20049;-79
2024/03/31 03:03:56;;;;;;;19.48;6.38;;;;;;;13.62;100.00;101577.41;10434154;28;20051;-79
2024/03/31 03:09:21;;;;;;;20.52;5.43;;;;;;;13.64;100.00;101585.41;10447461;28;20057;-78
2024/03/31 03:14:43;;;;;;;17.38;5.85;;;;;;;13.56;100.00;101580.84;10448522;28;20103;-79
2024/03/31 03:20:08;;;;;;;9.65;5.45;;;;;;;13.46;100.00;101589.50;10460627;28;20045;-78
2024/03/31 03:25:31;;;;;;;12.82;5.05;;;;;;;13.43;100.00;101591.22;10447680;28;20053;-79
2024/03/31 03:30:53;;;;;;;13.18;5.15;;;;;;;13.39;100.00;101595.56;10447820;28;20544;-78
2024/03/31 03:36:20;;;;;;;14.13;5.70;;;;;;;13.18;100.00;101602.28;10433724;28;20060;-78
2024/03/31 03:41:43;;;;;;;14.70;5.47;;;;;;;13.10;100.00;101610.94;10434274;28;20065;-79
2024/03/31 03:47:05;;;;;;;16.50;4.57;;;;;;;13.16;100.00;101623.44;10449432;28;20051;-78
2024/03/31 03:52:29;;;;;;;14.77;5.53;;;;;;;13.22;100.00;101626.22;10431100;28;20052;-79
2024/03/31 03:57:52;;;;;;;12.85;4.53;;;;;;;13.15;100.00;101621.66;10447767;28;20095;-79
2024/03/31 04:03:15;;;;;;;11.88;4.55;;;;;;;13.12;100.00;101634.84;10473404;28;20067;-79
2024/03/31 04:08:39;;;;;;;12.85;5.38;;;;;;;13.19;100.00;101634.13;10463872;28;20052;-78
2024/03/31 04:14:03;;;;;;;19.42;5.20;;;;;;;13.33;100.00;101643.19;10497469;28;20055;-79
2024/03/31 04:19:27;;;;;;;11.77;5.60;;;;;;;13.51;100.00;101650.63;10464744;28;20140;-78
2024/03/31 04:24:53;;;;;;;17.13;4.78;;;;;;;13.55;100.00;101655.09;10453670;28;20082;-79
2024/03/31 04:30:15;;;;;;;16.45;5.05;;;;;;;13.82;100.00;101662.66;10467662;28;20076;-78
2024/03/31 04:35:39;;;;;;;12.57;4.30;;;;;;;13.89;100.00;101662.78;10480828;28;20575;-79
2024/03/31 04:41:03;;;;;;;18.65;7.97;;;;;;;14.02;100.00;101679.81;10470811;28;20036;-78
2024/03/31 04:46:27;;;;;;;15.02;5.75;;;;;;;14.27;100.00;101684.63;10470463;28;20097;-79
2024/03/31 04:51:50;;;;;;;19.90;7.10;;;;;;;14.66;100.00;101678.13;10442301;28;20047;-78
2024/03/31 04:57:23;;;;;;;18.13;5.47;;;;;;;15.75;100.00;101682.06;10481507;28;20044;-79
2024/03/31 05:02:48;;;;;;;14.07;5.43;;;;;;;16.23;100.00;101692.25;10468107;28;20076;-77
2024/03/31 05:08:10;;;;;;;10.43;4.60;;;;;;;17.36;87.01;101696.41;10482453;28;20113;-78
2024/03/31 05:13:34;;;;;;;14.27;4.57;;;;;;;18.87;72.01;101691.97;10455845;28;20053;-78
2024/03/31 05:19:02;;;;;;;21.60;5.63;;;;;;;19.33;66.91;101699.81;10449575;28;20036;-79
2024/03/31 05:24:25;;;;;;;12.02;5.47;;;;;;;19.18;70.12;101707.91;10463641;28;20101;-79
2024/03/31 05:29:49;;;;;;;19.42;5.53;;;;;;;19.30;72.96;101707.84;10470636;28;20575;-78
2024/03/31 05:35:12;;;;;;;14.65;6.28;;;;;;;20.75;62.86;101707.63;10458677;28;20128;-79
2024/03/31 05:40:35;;;;;;;19.55;5.97;;;;;;;22.87;52.45;101712.47;10493188;28;20075;-79
2024/03/31 05:45:59;;;;;;;18.20;6.63;;;;;;;24.95;45.44;101710.16;10456635;28;20106;-79
2024/03/31 05:51:22;;;;;;;19.70;5.82;;;;;;;26.69;41.81;101721.72;10463382;28;20056;-79
2024/03/31 05:56:46;;;;;;;13.25;5.47;;;;;;;28.31;38.53;101714.47;10487313;28;20048;-80
2024/03/31 06:02:11;;;;;;;13.02;5.30;;;;;;;29.38;36.20;101718.75;10466232;28;20114;-79
2024/03/31 06:07:36;;;;;;;16.17;5.53;;;;;;;30.11;33.40;101715.16;10486901;28;20147;-80
2024/03/31 06:12:59;;;;;;;15.73;4.72;;;;;;;30.44;32.63;101712.56;10494182;28;20139;-80
2024/03/31 06:18:23;;;;;;;9.85;4.70;;;;;;;28.91;33.48;101710.91;10481004;28;20055;-79
2024/03/31 06:23:48;;;;;;;16.00;5.03;;;;;;;28.53;34.04;101707.16;10461759;28;20063;-80
2024/03/31 06:29:11;;;;;;;16.48;6.57;;;;;;;29.38;33.79;101709.69;10476579;28;20044;-81
2024/03/31 06:34:36;;;;;;;16.70;6.88;;;;;;;29.51;34.97;101700.00;10498547;28;20139;-79
2024/03/31 06:39:58;;;;;;;12.32;5.68;;;;;;;30.13;35.14;101702.34;10456291;28;20264;-79
2024/03/31 06:45:24;;;;;;;33.40;13.63;;;;;;;31.98;33.26;101707.69;10449890;28;20126;-79
2024/03/31 06:50:48;;;;;;;25.10;12.48;;;;;;;34.17;30.72;101707.50;10479951;28;20242;-78
2024/03/31 06:56:11;;;;;;;14.23;8.00;;;;;;;35.23;30.43;101710.13;10459813;28;20052;-78
2024/03/31 07:01:34;;;;;;;14.88;7.15;;;;;;;35.69;30.81;101702.13;10454196;28;20124;-78
2024/03/31 07:06:59;;;;;;;11.95;7.38;;;;;;;34.82;31.87;101699.34;10469960;28;20131;-79
2024/03/31 07:12:23;;;;;;;16.85;5.55;;;;;;;32.62;35.71;101704.75;10479187;28;20083;-77
2024/03/31 07:17:49;;;;;;;13.10;7.95;;;;;;;31.81;37.51;101713.25;10463219;28;20048;-78
2024/03/31 07:23:13;;;;;;;14.35;9.02;;;;;;;32.42;36.50;101703.22;10465337;28;20507;-78
2024/03/31 07:28:36;;;;;;;20.85;14.45;;;;;;;31.82;37.38;101712.28;10486118;28;20121;-78
2024/03/31 07:33:59;;;;;;;22.05;8.75;;;;;;;32.58;34.78;101713.22;10451455;28;20053;-78
2024/03/31 07:39:23;;;;;;;26.83;13.32;;;;;;;32.01;34.67;101718.44;10453616;28;20129;-78
2024/03/31 07:44:46;;;;;;;18.88;10.27;;;;;;;34.73;31.07;101728.31;10448776;28;20045;-78
2024/03/31 07:50:08;;;;;;;14.30;9.10;;;;;;;36.03;29.07;101739.84;10448699;28;20049;-78
2024/03/31 07:55:32;;;;;;;17.20;6.28;;;;;;;35.28;29.61;101736.25;10502275;28;20051;-77
2024/03/31 08:00:58;;;;;;;15.60;9.25;;;;;;;34.31;30.63;101740.38;10470328;28;20467;-77
2024/03/31 08:06:21;;;;;;;12.15;6.53;;;;;;;34.61;30.14;101735.50;10450409;28;20566;-77
2024/03/31 08:11:45;;;;;;;11.07;5.22;;;;;;;35.43;30.10;101743.41;10482353;28;20052;-77
2024/03/31 08:17:08;;;;;;;13.15;5.05;;;;;;;36.38;28.70;101750.03;10475152;28;20368;-78
2024/03/31 08:22:30;;;;;;;6.05;3.40;;;;;;;37.00;27.71;101757.03;10492602;28;20032;-78
2024/03/31 08:27:54;;;;;;;5.68;3.60;;;;;;;36.92;28.53;101754.03;10492158;28;20086;-78
2024/03/31 08:33:17;;;;;;;10.52;4.90;;;;;;;36.04;28.67;101749.84;10477809;28;20166;-78
2024/03/31 08:38:40;;;;;;;12.88;3.85;;;;;;;36.65;28.01;101742.44;10469488;28;20127;-80
2024/03/31 08:44:06;;;;;;;6.13;3.40;;;;;;;37.17;27.93;101743.81;10474903;28;20545;-81
2024/03/31 08:49:28;;;;;;;8.67;3.93;;;;;;;38.52;26.45;101755.47;10477617;28;20040;-79
2024/03/31 08:54:53;;;;;;;10.10;4.60;;;;;;;38.52;26.47;101744.41;10506495;28;20036;-80
2024/03/31 09:00:18;;;;;;;13.05;7.85;;;;;;;37.61;27.32;101746.63;10455457;28;20090;-82
2024/03/31 09:05:42;;;;;;;12.13;4.75;;;;;;;37.84;25.78;101745.56;10464168;28;20056;-81
2024/03/31 09:11:07;;;;;;;15.82;5.03;;;;;;;37.61;26.89;101730.09;10496031;28;20059;-81
2024/03/31 09:16:32;;;;;;;9.13;4.13;;;;;;;37.46;28.03;101732.19;10468701;28;20049;-80
2024/03/31 09:21:54;;;;;;;10.30;4.65;;;;;;;37.55;28.29;101729.69;10481371;28;20048;-79
2024/03/31 09:27:17;;;;;;;9.38;3.90;;;;;;;37.40;28.55;101734.56;10440429;28;20049;-81
2024/03/31 09:32:41;;;;;;;9.75;4.75;;;;;;;37.58;28.39;101733.09;10456580;28;20054;-80
2024/03/31 09:38:04;;;;;;;10.73;4.57;;;;;;;37.33;28.26;101725.03;10458792;28;20048;-78
2024/03/31 09:43:27;;;;;;;179.05;13.57;;;;;;;37.56;27.54;101717.63;10447897;28;20048;-78
2024/03/31 09:48:53;;;;;;;20.33;5.82;;;;;;;37.30;28.15;101723.41;10463894;28;20044;-78
2024/03/31 09:54:23;;;;;;;297.93;29.40;;;;;;;36.63;30.83;101719.59;10462513;28;20041;-77
2024/03/31 09:59:50;;;;;;;12.45;3.67;;;;;;;36.17;32.07;101720.44;10426910;28;20037;-77
2024/03/31 10:05:18;;;;;;;119.97;7.75;;;;;;;36.04;32.94;101707.72;10451821;28;20131;-78
2024/03/31 10:10:43;;;;;;;7.10;3.35;;;;;;;35.14;34.52;101711.63;10458795;28;20106;-77
2024/03/31 10:16:08;;;;;;;3.78;1.60;;;;;;;35.29;34.59;101705.06;10470255;28;20040;-77
2024/03/31 10:21:34;;;;;;;0.38;0.38;;;;;;;35.32;33.95;101693.84;10485913;28;20044;-77
2024/03/31 10:26:56;;;;;;;0.10;0.10;;;;;;;35.01;34.40;101688.78;10460788;28;20040;-77
2024/03/31 10:32:19;;;;;;;0.52;0.25;;;;;;;34.66;34.76;101672.06;10486805;28;20044;-78
2024/03/31 10:37:44;;;;;;;0.10;0.10;;;;;;;34.76;34.49;101663.13;10457070;28;20141;-78
2024/03/31 10:43:07;;;;;;;0.20;0.20;;;;;;;35.26;33.30;101664.06;10460348;28;20094;-77
2024/03/31 10:48:29;;;;;;;0.20;0.20;;;;;;;35.28;32.99;101662.09;10423977;28;20135;-78
2024/03/31 10:53:53;;;;;;;3.45;1.38;;;;;;;34.82;29.86;101647.19;10516095;28;20066;-77
2024/03/31 10:59:20;;;;;;;3.13;2.35;;;;;;;34.35;26.13;101627.59;10512806;28;20212;-77
2024/03/31 11:04:42;;;;;;;;;;;;;;;34.72;24.22;101625.03;10498071;28;20372;-80
2024/03/31 11:10:09;;;;;;;0.38;0.38;;;;;;;33.94;25.34;101613.97;10453009;28;19932;-77
2024/03/31 11:15:33;;;;;;;0.10;0.10;;;;;;;32.63;25.17;101607.13;10458980;28;20040;-76
2024/03/31 11:21:06;;;;;;;0.10;0.10;;;;;;;32.04;25.94;101612.56;10453798;28;20044;-75
2024/03/31 11:26:31;;;;;;;0.00;0.00;;;;;;;31.62;25.91;101621.47;10472260;28;20461;-75
2024/03/31 11:31:55;;;;;;;0.30;0.30;;;;;;;31.64;25.68;101615.88;10458362;28;20102;-77
2024/03/31 11:37:18;;;;;;;0.00;0.00;;;;;;;31.70;25.60;101604.63;10457066;28;20094;-80
2024/03/31 11:42:42;;;;;;;0.10;0.10;;;;;;;31.51;24.75;101612.97;10458986;28;20044;-75
2024/03/31 11:48:06;;;;;;;0.22;0.20;;;;;;;31.28;25.38;101607.97;10464710;28;20516;-78
2024/03/31 11:53:28;;;;;;;2.22;1.75;;;;;;;30.81;25.25;101608.75;10437106;28;20052;-78
2024/03/31 11:58:52;;;;;;;0.10;0.10;;;;;;;30.60;25.84;101609.94;10447538;28;20065;-77
2024/03/31 12:04:15;;;;;;;0.10;0.10;;;;;;;30.33;25.48;101603.19;10448351;28;20052;-76
2024/03/31 12:09:40;;;;;;;0.10;0.10;;;;;;;30.45;25.23;101598.00;10464016;28;20147;-76
2024/03/31 12:15:05;;;;;;;0.00;0.00;;;;;;;30.32;25.46;101590.56;10470555;28;20047;-76
2024/03/31 12:20:28;;;;;;;0.93;0.60;;;;;;;29.84;25.87;101592.13;10473864;28;20048;-77
2024/03/31 12:25:51;;;;;;;0.68;0.68;;;;;;;29.77;25.66;101584.34;10451998;28;20075;-77
2024/03/31 12:31:15;;;;;;;0.20;0.20;;;;;;;29.63;25.66;101587.78;10459210;28;20059;-76
2024/03/31 12:36:38;;;;;;;0.00;0.00;;;;;;;29.61;25.91;101578.78;10446775;28;20040;-75
2024/03/31 12:42:01;;;;;;;0.00;0.00;;;;;;;29.52;25.80;101573.81;10469612;28;20569;-77
2024/03/31 12:47:26;;;;;;;0.10;0.10;;;;;;;29.56;25.69;101576.31;10475694;28;20064;-77
2024/03/31 12:52:49;;;;;;;0.10;0.10;;;;;;;29.56;25.81;101569.97;10476263;28;20080;-76
2024/03/31 12:58:13;;;;;;;0.10;0.10;;;;;;;29.39;25.60;101561.78;10427146;28;20041;-77
2024/03/31 13:03:40;;;;;;;0.10;0.10;;;;;;;29.41;25.79;101578.91;10478188;28;20056;-76
2024/03/31 13:09:02;;;;;;;0.95;0.95;;;;;;;29.35;25.56;101579.22;10475405;28;20048;-76
2024/03/31 13:14:25;;;;;;;0.40;0.40;;;;;;;29.27;25.53;101565.97;10472389;28;20576;-77
2024/03/31 13:19:49;;;;;;;0.38;0.32;;;;;;;29.09;25.56;101559.56;10466038;28;20060;-77
2024/03/31 13:25:11;;;;;;;2.30;2.10;;;;;;;28.88;25.83;101545.19;10510065;28;20040;-77
2024/03/31 13:30:35;;;;;;;1.45;1.35;;;;;;;28.87;26.18;101540.72;10470534;28;20045;-77
2024/03/31 13:35:59;;;;;;;0.93;0.93;;;;;;;28.79;25.88;101540.19;10490491;28;20049;-77
2024/03/31 13:41:22;;;;;;;0.10;0.10;;;;;;;28.66;25.46;101533.53;10488293;28;20044;-77
2024/03/31 13:46:45;;;;;;;0.10;0.10;;;;;;;28.61;25.69;101530.16;10458635;28;20056;-78
2024/03/31 13:52:09;;;;;;;0.25;0.25;;;;;;;28.49;25.89;101519.84;10462080;28;20129;-75
2024/03/31 13:57:31;;;;;;;1.05;0.85;;;;;;;28.41;26.12;101522.06;10496662;28;20063;-78
2024/03/31 14:02:56;;;;;;;0.13;0.13;;;;;;;28.37;26.23;101521.31;10452841;28;20045;-77
2024/03/31 14:08:20;;;;;;;0.15;0.15;;;;;;;28.29;26.02;101512.63;10476749;28;20071;-76
2024/03/31 14:13:42;;;;;;;0.10;0.10;;;;;;;28.03;26.13;101502.91;10463048;28;20505;-78
2024/03/31 14:19:06;;;;;;;0.80;0.77;;;;;;;28.05;26.47;101498.31;10462989;28;20691;-77
2024/03/31 14:24:30;;;;;;;0.38;0.38;;;;;;;28.08;26.91;101497.28;10471640;28;20045;-77
2024/03/31 14:29:52;;;;;;;0.10;0.10;;;;;;;28.06;27.45;101496.47;10489106;28;20055;-76
2024/03/31 14:35:15;;;;;;;0.45;0.45;;;;;;;28.06;27.34;101499.19;10461886;28;20147;-76
2024/03/31 14:40:39;;;;;;;0.10;0.10;;;;;;;27.97;27.04;101500.47;10482698;28;20063;-77
2024/03/31 14:46:02;;;;;;;0.20;0.20;;;;;;;27.85;26.28;101487.47;10455995;28;20069;-77
2024/03/31 14:51:24;;;;;;;0.20;0.20;;;;;;;27.79;26.07;101489.56;10441011;28;20107;-80
2024/03/31 14:56:48;;;;;;;0.13;0.13;;;;;;;27.68;26.65;101498.19;10475471;28;20103;-80
2024/03/31 15:02:12;;;;;;;0.10;0.10;;;;;;;27.17;27.09;101495.84;10475003;28;20114;-81
2024/03/31 15:07:34;;;;;;;0.30;0.30;;;;;;;26.85;26.97;101494.38;10474933;28;20437;-80
2024/03/31 15:12:58;;;;;;;0.30;0.30;;;;;;;26.61;26.36;101498.06;10454003;28;20082;-81
2024/03/31 15:18:21;;;;;;;2.78;2.53;;;;;;;26.38;27.25;101491.72;10464268;28;20106;-80
2024/03/31 15:23:44;;;;;;;0.65;0.30;;;;;;;26.15;27.66;101491.66;10452441;28;20036;-78
2024/03/31 15:29:08;;;;;;;0.10;0.10;;;;;;;25.95;28.31;101500.50;10476549;28;20127;-80
2024/03/31 15:34:30;;;;;;;0.10;0.10;;;;;;;25.72;28.54;101501.34;10473907;28;20219;-80
2024/03/31 15:39:53;;;;;;;1.02;0.32;;;;;;;25.54;29.43;101510.06;10474251;28;20098;-81
2024/03/31 15:45:20;;;;;;;0.30;0.30;;;;;;;25.35;29.89;101508.91;10444542;28;20047;-79
2024/03/31 15:50:45;;;;;;;0.32;0.32;;;;;;;25.17;30.71;101505.00;10460551;28;20048;-82
2024/03/31 15:56:08;;;;;;;0.10;0.10;;;;;;;24.95;31.37;101512.91;10459272;28;20131;-82
2024/03/31 16:01:32;;;;;;;5.38;4.07;;;;;;;24.74;31.95;101518.09;10474065;28;20052;-83
2024/03/31 16:06:54;;;;;;;0.20;0.20;;;;;;;24.52;32.49;101521.44;10460450;28;20056;-83
2024/03/31 16:12:17;;;;;;;0.38;0.38;;;;;;;24.29;33.03;101531.13;10460087;28;20114;-80
2024/03/31 16:17:42;;;;;;;0.20;0.20;;;;;;;24.07;34.16;101533.53;10464487;28;20052;-79
2024/03/31 16:23:11;;;;;;;0.30;0.30;;;;;;;23.77;34.56;101522.63;10470641;28;20036;-81
2024/03/31 16:28:35;;;;;;;1.10;0.75;;;;;;;23.51;35.43;101525.13;10479945;28;20113;-80
2024/03/31 16:33:59;;;;;;;0.22;0.22;;;;;;;23.25;36.02;101541.03;10488090;28;20052;-79
2024/03/31 16:39:21;;;;;;;0.63;0.63;;;;;;;22.94;36.59;101530.97;10505799;28;20051;-79
2024/03/31 16:44:44;;;;;;;1.55;0.68;;;;;;;22.78;37.40;101534.94;10507632;28;20364;-80
2024/03/31 16:50:08;;;;;;;0.20;0.20;;;;;;;22.59;37.70;101529.03;10476673;28;20131;-82
2024/03/31 16:55:31;;;;;;;0.20;0.20;;;;;;;22.37;38.48;101533.13;10477710;28;20041;-78
2024/03/31 17:00:54;;;;;;;0.55;0.55;;;;;;;22.22;39.27;101534.31;10468538;28;20427;-79
2024/03/31 17:06:18;;;;;;;0.63;0.63;;;;;;;22.12;39.81;101543.47;10462815;28;20036;-78
2024/03/31 17:11:45;;;;;;;0.20;0.20;;;;;;;21.97;40.42;101551.84;10460574;28;20109;-79
2024/03/31 17:17:08;;;;;;;1.25;1.05;;;;;;;21.71;40.46;101546.03;10483254;28;20040;-76
2024/03/31 17:22:32;;;;;;;0.50;0.50;;;;;;;21.61;41.58;101550.66;10467339;28;20053;-76
2024/03/31 17:27:55;;;;;;;0.10;0.10;;;;;;;21.56;42.28;101557.91;10467139;28;20515;-78
2024/03/31 17:33:17;;;;;;;0.13;0.13;;;;;;;21.50;43.01;101549.06;10482413;28;20098;-77
2024/03/31 17:38:41;;;;;;;1.58;1.13;;;;;;;21.48;43.87;101560.72;10469363;28;20102;-80
2024/03/31 17:44:04;;;;;;;0.10;0.10;;;;;;;21.41;44.53;101568.91;10472743;28;20064;-77
2024/03/31 17:49:27;;;;;;;0.75;0.70;;;;;;;21.14;45.10;101585.41;10461847;28;20052;-77
2024/03/31 17:54:50;;;;;;;0.10;0.10;;;;;;;20.91;45.96;101593.81;10480720;28;20044;-80
2024/03/31 18:00:14;;;;;;;0.93;0.88;;;;;;;20.80;45.05;101591.28;10482264;28;20570;-81
2024/03/31 18:05:37;;;;;;;1.42;1.33;;;;;;;20.67;45.76;101598.59;10482300;28;20044;-78
2024/03/31 18:11:02;;;;;;;0.40;0.40;;;;;;;20.56;45.40;101605.88;10475231;28;20452;-78
2024/03/31 18:16:24;;;;;;;0.20;0.20;;;;;;;20.22;45.74;101609.78;10452388;28;20040;-77
2024/03/31 18:21:47;;;;;;;0.20;0.20;;;;;;;19.84;46.28;101604.81;10448501;28;20049;-77
2024/03/31 18:27:12;;;;;;;2.90;1.23;;;;;;;19.61;47.19;101618.41;10463803;28;20044;-76
2024/03/31 18:32:34;;;;;;;0.55;0.38;;;;;;;19.46;47.17;101614.06;10456869;28;20051;-79
2024/03/31 18:37:56;;;;;;;0.20;0.20;;;;;;;19.55;46.76;101615.78;10508577;28;20036;-78
2024/03/31 18:43:21;;;;;;;0.20;0.20;;;;;;;19.20;48.64;101628.47;10465231;28;20055;-77
2024/03/31 18:48:44;;;;;;;0.20;0.20;;;;;;;18.93;51.86;101632.19;10497577;28;20044;-78
2024/03/31 18:54:06;;;;;;;0.20;0.20;;;;;;;18.86;52.77;101634.00;10491900;28;20058;-77
2024/03/31 18:59:30;;;;;;;0.30;0.30;;;;;;;18.67;56.35;101640.31;10492636;28;20519;-77
2024/03/31 19:04:53;;;;;;;0.40;0.40;;;;;;;18.47;57.60;101645.69;10518317;28;20047;-76
2024/03/31 19:10:17;;;;;;;0.20;0.20;;;;;;;18.13;61.80;101634.19;10499904;28;20083;-78
2024/03/31 19:15:40;;;;;;;0.98;0.98;;;;;;;17.92;66.92;101650.22;10468465;28;20097;-78
2024/03/31 19:21:05;;;;;;;0.65;0.65;;;;;;;17.80;69.03;101647.56;10484829;28;20048;-78
2024/03/31 19:26:27;;;;;;;0.47;0.30;;;;;;;17.50;72.84;101651.06;10488661;28;20431;-78
2024/03/31 19:31:51;;;;;;;0.30;0.28;;;;;;;17.27;77.02;101650.13;10485086;28;20048;-79
2024/03/31 19:37:14;;;;;;;0.22;0.22;;;;;;;17.24;78.70;101651.03;10478018;28;20048;-78
2024/03/31 19:42:37;;;;;;;0.20;0.20;;;;;;;17.24;80.68;101644.78;10477459;28;20079;-77
2024/03/31 19:48:01;;;;;;;0.45;0.45;;;;;;;17.26;80.74;101651.03;10479639;28;20564;-78
2024/03/31 19:53:23;;;;;;;0.43;0.43;;;;;;;17.03;83.76;101650.94;10523777;28;20093;-85
2024/03/31 19:58:46;;;;;;;0.20;0.20;;;;;;;16.74;87.95;101653.47;10492628;28;20056;-83
2024/03/31 20:04:19;;;;;;;1.65;0.82;;;;;;;16.62;90.40;101659.66;10498164;28;20500;-83
2024/03/31 20:09:41;;;;;;;2.45;0.30;;;;;;;16.61;91.51;101665.88;10493394;28;20049;-82
2024/03/31 20:15:05;;;;;;;0.80;0.50;;;;;;;16.65;91.82;101670.34;10506626;28;20048;-84
2024/03/31 20:20:29;;;;;;;1.08;0.47;;;;;;;16.48;93.48;101666.66;10479203;28;20194;-84
2024/03/31 20:25:51;;;;;;;0.22;0.22;;;;;;;16.60;89.63;101661.44;10484010;28;20064;-84
2024/03/31 20:31:14;;;;;;;0.73;0.20;;;;;;;16.44;90.14;101658.63;10479448;28;20105;-85
2024/03/31 20:36:39;;;;;;;0.20;0.20;;;;;;;16.21;92.15;101658.50;10490229;28;20132;-95
2024/03/31 20:42:01;;;;;;;0.20;0.20;;;;;;;16.13;92.96;101663.78;10487482;28;20052;-93
2024/03/31 20:47:25;;;;;;;0.43;0.43;;;;;;;16.16;92.16;101658.44;10508297;28;20043;-94
2024/03/31 20:52:52;;;;;;;1.33;1.23;;;;;;;16.22;90.27;101650.50;10487290;28;20730;-93
2024/03/31 20:58:15;;;;;;;0.30;0.30;;;;;;;16.11;91.58;101641.53;10444410;28;20052;-94
2024/03/31 21:03:41;;;;;;;0.20;0.20;;;;;;;15.89;93.76;101634.25;10491669;28;20139;-95
2024/03/31 21:09:08;;;;;;;1.27;0.85;;;;;;;15.94;93.79;101630.78;10477835;28;20059;-95
2024/03/31 21:14:35;;;;;;;5.15;0.88;;;;;;;15.87;93.27;101634.28;10507007;28;20131;-94
2024/03/31 21:20:00;;;;;;;0.35;0.20;;;;;;;15.65;95.40;101637.63;10550950;28;20044;-94
2024/03/31 21:25:25;;;;;;;0.32;0.32;;;;;;;15.59;96.39;101640.22;10530274;28;20059;-94
2024/03/31 21:31:07;;;;;;;0.28;0.28;;;;;;;15.40;98.00;101639.13;10531743;28;20106;-94
2024/03/31 21:36:33;;;;;;;0.40;0.40;;;;;;;15.46;96.80;101636.53;10506433;28;20056;-95
2024/03/31 21:41:57;;;;;;;0.20;0.20;;;;;;;15.61;94.53;101618.97;10505891;28;20125;-94
2024/03/31 21:47:23;;;;;;;0.20;0.20;;;;;;;15.61;93.49;101633.16;10509274;28;20146;-93
2024/03/31 21:52:48;;;;;;;0.85;0.85;;;;;;;15.49;94.92;101633.03;10522532;28;20396;-93
2024/03/31 21:58:15;;;;;;;0.30;0.30;;;;;;;15.29;96.64;101646.13;10511203;28;20050;-92
2024/03/31 22:03:44;;;;;;;0.50;0.50;;;;;;;15.32;96.71;101639.91;10521170;28;20059;-94
2024/03/31 22:09:09;;;;;;;;;;;;;;;15.38;96.16;101642.66;10476141;28;20044;-94
2024/03/31 22:14:36;;;;;;;1.27;1.17;;;;;;;15.21;97.05;101652.22;10510463;28;19977;-94
2024/03/31 22:20:11;;;;;;;0.20;0.20;;;;;;;14.98;98.96;101649.28;10510301;28;20044;-95
2024/03/31 22:25:38;;;;;;;0.30;0.30;;;;;;;14.79;100.00;101645.53;10508243;28;20055;-94
2024/03/31 22:36:51;;;;;;;0.20;0.20;;;;;;;14.94;99.30;101647.47;10505028;28;20044;-93
2024/03/31 22:42:15;;;;;;;0.10;0.10;;;;;;;14.88;99.50;101642.09;10499847;28;20044;-94
2024/03/31 22:47:47;;;;;;;0.10;0.10;;;;;;;14.73;100.00;101637.47;10491147;28;20052;-92
2024/03/31 22:53:16;;;;;;;0.20;0.20;;;;;;;14.89;98.30;101639.47;10502086;28;20040;-95
2024/03/31 22:58:40;;;;;;;0.30;0.30;;;;;;;14.70;99.72;101635.66;10526607;28;20044;-94
2024/03/31 23:04:05;;;;;;;0.20;0.20;;;;;;;14.59;100.00;101631.09;10514505;28;20052;-95
2024/03/31 23:09:31;;;;;;;0.20;0.20;;;;;;;14.65;100.00;101613.44;10485772;28;20091;-93
2024/03/31 23:14:53;;;;;;;0.20;0.20;;;;;;;14.64;99.84;101610.75;10516326;28;20142;-92
2024/03/31 23:20:21;;;;;;;0.20;0.20;;;;;;;14.39;100.00;101611.31;10508516;28;20055;-92
2024/03/31 23:25:44;;;;;;;0.20;0.20;;;;;;;14.38;100.00;101612.19;10491195;28;20041;-93
2024/03/31 23:31:07;;;;;;;0.20;0.20;;;;;;;14.28;100.00;101612.03;10492422;28;20040;-94
2024/03/31 23:36:53;;;;;;;0.13;0.13;;;;;;;14.19;100.00;101611.91;10501322;28;20072;-92
2024/03/31 23:42:18;;;;;;;0.43;0.43;;;;;;;14.17;100.00;101600.38;10504974;28;20071;-95
2024/03/31 23:47:41;;;;;;;0.20;0.20;;;;;;;14.06;100.00;101596.66;10529207;28;20052;-95
2024/03/31 23:53:08;;;;;;;0.40;0.40;;;;;;;14.16;100.00;101592.41;10519096;28;20043;-94
2024/03/31 23:58:36;;;;;;;0.20;0.20;;;;;;;14.22;100.00;101595.13;10528906;28;20055;-95
